CDT,Max TemperatureF,Mean TemperatureF,Min TemperatureF,Max Dew PointF,MeanDew PointF,Min DewpointF,Max Humidity, Mean Humidity, Min Humidity, Max Sea Level PressureIn, Mean Sea Level PressureIn, Min Sea Level PressureIn, Max VisibilityMiles, Mean VisibilityMiles, Min VisibilityMiles, Max Wind SpeedMPH, Mean Wind SpeedMPH, Max Gust SpeedMPH,PrecipitationIn, CloudCover, Events, WindDirDegrees
2012-8-1,101,90,78,75,71,65,90,65,35,30.01,29.95,29.86,10,10,10,15,8,23,0.00,2,,194
2012-8-2,99,88,76,74,70,64,94,61,35,29.93,29.87,29.81,10,10,10,21,11,44,0.00,1,,187
2012-8-3,99,88,76,75,72,69,91,65,38,29.94,29.88,29.82,10,10,9,20,10,25,0.00,2,,186
2012-8-4,99,88,77,75,72,69,90,63,40,30.01,29.94,29.91,10,10,10,16,8,20,0.00,1,,173
2012-8-5,99,88,77,76,73,68,87,69,39,30.12,30.07,30.01,10,10,9,31,4,38,T,2,Rain,198
2012-8-6,99,88,77,74,71,66,88,63,36,30.09,30.02,29.93,10,10,10,15,4,20,0.00,0,,201
2012-8-7,101,89,77,76,72,66,81,62,34,30.00,29.92,29.87,10,9,1,25,4,33,0.29,2,Rain-Thunderstorm,178
2012-8-8,99,88,77,76,72,66,90,64,36,30.01,29.94,29.87,10,10,10,17,6,21,0.00,0,,170
2012-8-9,100,90,79,76,72,67,88,62,35,29.98,29.91,29.83,10,10,10,14,7,17,0.00,0,,195
2012-8-10,105,92,78,75,72,64,85,62,27,29.90,29.85,29.76,10,10,10,26,8,35,0.00,1,,217
2012-8-11,101,89,77,75,71,66,90,62,34,29.94,29.89,29.84,10,10,10,13,4,16,0.00,0,,161
2012-8-12,99,89,79,76,73,67,88,64,37,29.99,29.94,29.87,10,10,10,20,9,25,0.00,2,,185
2012-8-13,100,90,79,76,72,65,89,62,32,30.03,29.96,29.87,10,10,10,17,9,25,0.00,1,,204
2012-8-14,101,90,79,76,71,63,90,58,29,29.99,29.91,29.83,10,10,10,20,10,25,0.00,0,,192
2012-8-15,99,89,79,76,71,64,88,64,33,29.96,29.91,29.83,10,10,10,20,11,26,0.00,2,,185
2012-8-16,100,89,78,77,73,65,93,69,32,30.03,29.97,29.89,10,10,7,18,9,25,0.00,3,,172
2012-8-17,100,89,78,77,73,66,90,68,34,30.03,29.94,29.83,10,9,1,31,6,40,0.84,4,Rain-Thunderstorm,195
2012-8-18,89,81,73,76,74,71,93,76,63,29.99,29.91,29.83,10,10,10,22,7,26,0.16,4,Rain,317
2012-8-19,89,81,72,72,71,69,100,80,53,29.97,29.91,29.86,10,10,2,16,4,18,0.41,5,Rain,41
2012-8-20,96,85,73,71,64,55,91,55,30,29.94,29.90,29.86,10,10,10,16,7,22,0.00,0,,356
2012-8-21,90,82,73,71,65,58,82,63,40,30.00,29.97,29.91,10,10,10,21,8,26,0.01,3,Rain,63
2012-8-22,93,84,74,70,67,63,85,64,40,30.06,30.01,29.95,10,10,10,13,6,16,0.00,4,,77
2012-8-23,93,83,72,72,70,68,93,69,44,30.04,29.98,29.90,10,10,10,21,6,26,0.00,1,,112
2012-8-24,95,85,75,74,72,67,94,77,41,29.96,29.91,29.82,10,10,10,22,7,25,0.00,3,,134
2012-8-25,96,87,77,76,74,70,94,75,46,29.94,29.89,29.85,10,10,9,24,12,28,0.00,4,,162
2012-8-26,95,86,76,76,73,66,97,73,41,30.04,29.98,29.92,10,10,9,17,8,24,0.00,2,,150
2012-8-27,93,85,76,74,72,70,88,70,49,30.04,29.97,29.91,10,10,10,18,3,25,T,2,Rain-Thunderstorm,1
2012-8-28,100,89,77,74,70,67,88,59,36,29.92,29.86,29.76,10,10,10,16,9,22,0.00,1,,10
2012-8-29,100,89,78,70,66,62,69,50,32,29.81,29.74,29.65,10,10,10,24,13,31,0.00,2,,2
2012-8-30,101,89,76,69,65,62,71,47,29,29.77,29.70,29.64,10,10,10,21,10,30,0.00,1,,346
2012-8-31,102,91,79,79,73,66,89,64,32,29.98,29.89,29.78,10,10,9,22,10,28,0.00,1,Thunderstorm,178